createdAt,value
2022-12-08T00:01:40.994Z,9.40
2022-12-08T00:04:09.412Z,9.75
2022-12-08T00:06:56.792Z,10.17
2022-12-08T00:09:37.988Z,9.98
2022-12-08T00:12:08.780Z,9.43
2022-12-08T00:14:38.374Z,10.35
2022-12-08T00:17:07.488Z,9.25
2022-12-08T00:19:35.682Z,9.30
2022-12-08T00:22:03.989Z,10.05
2022-12-08T00:24:35.657Z,9.65
2022-12-08T00:27:03.741Z,9.85
2022-12-08T00:29:31.908Z,8.77
2022-12-08T00:32:00.152Z,8.87
2022-12-08T00:34:28.370Z,9.32
2022-12-08T00:36:56.296Z,10.40
2022-12-08T00:39:24.491Z,9.40
2022-12-08T00:42:11.481Z,9.05
2022-12-08T00:44:39.938Z,9.10
2022-12-08T00:47:07.851Z,9.35
2022-12-08T00:49:36.121Z,9.45
2022-12-08T00:52:04.134Z,9.75
2022-12-08T00:54:32.330Z,9.85
2022-12-08T00:57:01.604Z,9.50
2022-12-08T00:59:29.930Z,9.40
2022-12-08T01:01:57.912Z,10.40
2022-12-08T01:04:26.061Z,9.38
2022-12-08T01:06:53.957Z,9.15
2022-12-08T01:09:22.101Z,9.60
2022-12-08T01:11:50.020Z,9.32
2022-12-08T01:14:19.529Z,10.27
2022-12-08T01:16:48.145Z,9.15
2022-12-08T01:19:17.329Z,10.55
2022-12-08T01:21:46.372Z,9.63
2022-12-08T01:24:16.165Z,10.23
2022-12-08T01:26:44.407Z,9.95
2022-12-08T01:29:12.852Z,9.00
2022-12-08T01:31:42.185Z,10.45
2022-12-08T01:34:11.741Z,8.93
2022-12-08T01:36:39.802Z,8.93
2022-12-08T01:39:09.730Z,8.93
2022-12-08T01:41:38.828Z,9.25
2022-12-08T01:44:40.177Z,9.15
2022-12-08T01:47:09.647Z,8.50
2022-12-08T01:49:37.967Z,9.73
2022-12-08T01:52:11.054Z,7.90
2022-12-08T01:54:43.637Z,9.00
2022-12-08T01:57:13.674Z,8.93
2022-12-08T01:59:45.340Z,8.90
2022-12-08T02:02:14.769Z,10.30
2022-12-08T02:04:43.045Z,9.73
2022-12-08T02:07:11.952Z,8.18
2022-12-08T02:09:41.284Z,9.10
2022-12-08T02:12:10.085Z,8.80
2022-12-08T02:14:38.305Z,8.38
2022-12-08T02:17:11.870Z,9.20
2022-12-08T02:20:18.610Z,8.32
2022-12-08T02:22:53.658Z,8.05
2022-12-08T02:25:29.638Z,8.30
2022-12-08T02:28:03.965Z,8.52
2022-12-08T02:30:39.243Z,9.25
2022-12-08T02:33:39.669Z,8.20
2022-12-08T02:36:16.363Z,8.45
2022-12-08T02:38:48.525Z,8.90
2022-12-08T02:41:33.274Z,8.65
2022-12-08T02:44:06.547Z,9.10
2022-12-08T02:46:39.338Z,9.43
2022-12-08T02:49:08.048Z,8.68
2022-12-08T02:51:37.520Z,9.33
2022-12-08T02:54:05.897Z,9.45
2022-12-08T02:56:59.981Z,8.75
2022-12-08T02:59:38.214Z,9.52
2022-12-08T03:02:18.409Z,9.80
2022-12-08T03:04:48.049Z,10.57
2022-12-08T03:07:22.110Z,9.07
2022-12-08T03:09:52.823Z,8.63
2022-12-08T03:12:25.157Z,9.38
2022-12-08T03:14:54.717Z,9.13
2022-12-08T03:17:25.906Z,9.47
2022-12-08T03:19:54.707Z,9.85
2022-12-08T03:22:26.720Z,8.98
2022-12-08T03:24:54.979Z,9.75
2022-12-08T03:27:24.900Z,9.10
2022-12-08T03:29:54.486Z,9.50
2022-12-08T03:32:25.518Z,9.65
2022-12-08T03:34:53.999Z,10.90
2022-12-08T03:37:23.743Z,9.80
2022-12-08T03:39:51.647Z,10.20
2022-12-08T03:42:19.821Z,10.13
2022-12-08T03:44:47.736Z,10.45
2022-12-08T03:47:15.915Z,10.00
2022-12-08T03:49:43.824Z,10.10
2022-12-08T03:52:11.970Z,10.40
2022-12-08T03:54:41.254Z,10.23
2022-12-08T03:57:09.642Z,10.60
2022-12-08T03:59:37.550Z,9.07
2022-12-08T04:02:05.734Z,9.95
2022-12-08T04:04:33.705Z,9.80
2022-12-08T04:07:01.906Z,10.27
2022-12-08T04:09:29.859Z,10.38
2022-12-08T04:11:59.360Z,10.55
2022-12-08T04:14:27.337Z,10.32
2022-12-08T04:16:55.468Z,10.55
2022-12-08T04:19:23.413Z,9.77
2022-12-08T04:21:51.557Z,10.05
2022-12-08T04:24:19.440Z,10.15
2022-12-08T04:26:49.641Z,9.88
2022-12-08T04:29:19.093Z,9.95
2022-12-08T04:31:47.275Z,10.07
2022-12-08T04:34:15.179Z,9.43
2022-12-08T04:36:43.342Z,10.88
2022-12-08T04:39:11.269Z,9.82
2022-12-08T04:41:39.405Z,10.35
2022-12-08T04:44:07.262Z,9.97
2022-12-08T04:46:41.696Z,9.68
2022-12-08T04:49:11.224Z,11.00
2022-12-08T04:51:39.445Z,8.68
2022-12-08T04:54:07.343Z,9.30
2022-12-08T04:56:35.585Z,8.97
2022-12-08T04:59:03.640Z,9.85
2022-12-08T05:01:31.987Z,8.38
2022-12-08T05:04:01.425Z,9.02
2022-12-08T05:06:29.613Z,9.05
2022-12-08T05:08:57.536Z,8.27
2022-12-08T05:11:25.828Z,8.60
2022-12-08T05:13:53.697Z,8.70
2022-12-08T05:16:22.017Z,8.77
2022-12-08T05:18:49.934Z,9.40
2022-12-08T05:21:19.499Z,9.53
2022-12-08T05:23:47.404Z,9.40
2022-12-08T05:26:15.597Z,8.80
2022-12-08T05:28:44.568Z,9.80
2022-12-08T05:31:13.475Z,9.02
2022-12-08T05:33:41.751Z,9.07
2022-12-08T05:36:10.267Z,9.63
2022-12-08T05:38:39.533Z,8.52
2022-12-08T05:41:07.946Z,9.25
2022-12-08T05:43:35.889Z,9.70
2022-12-08T05:46:04.107Z,9.53
2022-12-08T05:48:32.043Z,9.55
2022-12-08T05:51:00.932Z,9.73
2022-12-08T05:53:31.251Z,9.13
2022-12-08T05:56:01.040Z,8.60
2022-12-08T05:58:28.986Z,8.20
2022-12-08T06:00:57.114Z,9.40
2022-12-08T06:03:25.324Z,9.75
2022-12-08T06:05:53.640Z,9.10
2022-12-08T06:08:21.578Z,8.82
2022-12-08T06:10:49.999Z,9.20
2022-12-08T06:13:19.246Z,9.20
2022-12-08T06:15:47.374Z,9.10
2022-12-08T06:18:15.297Z,9.20
2022-12-08T06:20:43.479Z,9.25
2022-12-08T06:23:11.562Z,9.43
2022-12-08T06:25:39.717Z,8.95
2022-12-08T06:28:08.537Z,8.90
2022-12-08T06:30:38.601Z,9.52
2022-12-08T06:33:06.563Z,9.27
2022-12-08T06:35:34.768Z,8.40
2022-12-08T06:38:02.625Z,8.75
2022-12-08T06:40:30.771Z,8.45
2022-12-08T06:42:58.668Z,8.38
2022-12-08T06:45:26.764Z,9.40
2022-12-08T06:47:56.029Z,8.63
2022-12-08T06:50:24.305Z,8.60
2022-12-08T06:53:02.759Z,9.35
2022-12-08T06:58:21.833Z,8.18
2022-12-08T07:00:50.125Z,8.63
2022-12-08T07:03:19.499Z,8.75
2022-12-08T07:05:47.803Z,9.30
2022-12-08T07:08:15.826Z,9.48
2022-12-08T07:10:44.031Z,9.45
2022-12-08T07:13:12.053Z,9.30
2022-12-08T07:15:40.192Z,10.38
2022-12-08T07:18:08.091Z,10.50
2022-12-08T07:20:37.803Z,9.55
2022-12-08T07:23:05.665Z,10.57
2022-12-08T07:25:33.946Z,9.33
2022-12-08T07:28:01.813Z,10.02
2022-12-08T07:30:30.107Z,10.00
2022-12-08T07:32:58.200Z,10.15
2022-12-08T07:35:26.683Z,9.95
2022-12-08T07:37:55.936Z,9.63
2022-12-08T07:40:24.161Z,10.52
2022-12-08T07:42:52.019Z,9.70
2022-12-08T07:45:20.294Z,10.13
2022-12-08T07:47:48.241Z,10.13
2022-12-08T07:50:16.413Z,10.27
2022-12-08T07:52:44.333Z,9.98
2022-12-08T07:55:13.893Z,9.15
2022-12-08T07:57:41.757Z,9.40
2022-12-08T08:00:12.218Z,9.75
2022-12-08T08:02:40.751Z,9.33
2022-12-08T08:05:10.226Z,9.88
2022-12-08T08:07:38.633Z,9.15
2022-12-08T08:10:08.272Z,9.55
2022-12-08T08:12:37.994Z,9.25
2022-12-08T08:15:08.510Z,9.47
2022-12-08T08:17:38.273Z,10.82
2022-12-08T08:20:08.507Z,9.65
2022-12-08T08:22:36.965Z,9.68
2022-12-08T08:25:05.768Z,10.65
2022-12-08T08:27:33.693Z,9.50
2022-12-08T08:30:06.695Z,8.60
2022-12-08T08:32:35.779Z,9.75
2022-12-08T08:35:04.347Z,8.80
2022-12-08T08:37:32.395Z,9.38
2022-12-08T08:40:00.598Z,10.20
2022-12-08T08:42:28.778Z,10.02
2022-12-08T08:44:56.999Z,9.43
2022-12-08T08:47:26.332Z,10.13
2022-12-08T08:49:54.547Z,10.45
2022-12-08T08:52:22.533Z,9.07
2022-12-08T08:54:50.668Z,9.82
2022-12-08T08:57:25.056Z,9.15
2022-12-08T08:59:53.948Z,9.60
2022-12-08T09:02:22.109Z,9.35
2022-12-08T09:04:51.906Z,9.33
2022-12-08T09:07:20.033Z,8.57
2022-12-08T09:09:48.414Z,9.93
2022-12-08T09:12:16.438Z,8.88
2022-12-08T09:14:45.763Z,9.82
2022-12-08T09:17:13.844Z,9.77
2022-12-08T09:19:42.557Z,8.60
2022-12-08T09:22:11.765Z,8.82
2022-12-08T09:24:41.258Z,9.00
2022-12-08T09:27:09.231Z,9.05
2022-12-08T09:29:37.472Z,9.17
2022-12-08T09:32:05.770Z,9.05
2022-12-08T09:34:34.014Z,9.15
2022-12-08T09:37:01.945Z,10.43
2022-12-08T09:39:31.456Z,9.02
2022-12-08T09:42:01.867Z,8.83
2022-12-08T09:44:57.237Z,8.82
2022-12-08T09:47:32.124Z,9.18
2022-12-08T09:50:07.560Z,9.05
2022-12-08T09:52:39.552Z,8.77
2022-12-08T09:55:16.844Z,7.83
2022-12-08T09:57:45.779Z,8.57
2022-12-08T10:00:15.248Z,8.30
2022-12-08T10:02:43.816Z,7.93
2022-12-08T10:05:14.727Z,7.72
2022-12-08T10:07:46.845Z,7.77
2022-12-08T10:10:26.052Z,7.43
2022-12-08T10:12:56.660Z,8.13
2022-12-08T10:15:36.236Z,7.57
2022-12-08T10:18:10.098Z,7.68
2022-12-08T10:20:40.953Z,7.47
2022-12-08T10:23:11.069Z,7.57
2022-12-08T10:25:44.449Z,7.50
2022-12-08T10:28:12.829Z,8.05
2022-12-08T10:30:41.232Z,8.95
2022-12-08T10:33:14.487Z,7.73
2022-12-08T10:35:47.330Z,8.32
2022-12-08T10:38:20.799Z,7.60
2022-12-08T10:40:51.961Z,8.20
2022-12-08T10:43:22.770Z,7.53
2022-12-08T10:45:51.137Z,7.60
2022-12-08T10:48:20.529Z,8.18
2022-12-08T10:50:55.045Z,8.10
2022-12-08T10:53:24.834Z,7.93
2022-12-08T10:56:06.349Z,7.53
2022-12-08T10:58:36.156Z,6.70
2022-12-08T11:01:07.998Z,9.75
2022-12-08T11:03:37.621Z,9.63
2022-12-08T11:06:14.378Z,7.85
2022-12-08T11:08:51.755Z,9.00
2022-12-08T11:11:29.071Z,8.07
2022-12-08T11:13:57.633Z,7.45
2022-12-08T11:16:26.057Z,7.60
2022-12-08T11:18:57.921Z,7.72
2022-12-08T11:21:36.351Z,7.20
2022-12-08T11:24:21.939Z,8.03
2022-12-08T11:26:54.016Z,8.10
2022-12-08T11:29:22.501Z,6.72
2022-12-08T11:31:53.788Z,7.70
2022-12-08T11:34:27.848Z,7.22
2022-12-08T11:36:56.810Z,7.60
2022-12-08T11:39:27.648Z,8.82
2022-12-08T11:41:58.008Z,8.20
2022-12-08T11:44:30.336Z,7.57
2022-12-08T11:47:01.796Z,6.95
2022-12-08T11:49:35.377Z,7.03
2022-12-08T11:52:12.037Z,6.72
2022-12-08T11:54:43.647Z,6.65
2022-12-08T11:57:16.414Z,7.90
2022-12-08T11:59:46.197Z,6.50
2022-12-08T12:02:17.330Z,7.07
2022-12-08T12:04:47.871Z,6.47
2022-12-08T12:07:28.312Z,7.07
2022-12-08T12:10:10.665Z,7.68
2022-12-08T12:13:01.138Z,6.47
2022-12-08T12:15:52.448Z,6.50
2022-12-08T12:18:26.570Z,6.40
2022-12-08T12:20:57.655Z,6.75
2022-12-08T12:23:30.894Z,6.45
2022-12-08T12:26:00.723Z,6.10
2022-12-08T12:28:35.851Z,6.00
2022-12-08T12:31:07.396Z,6.05
2022-12-08T12:33:36.176Z,7.25
2022-12-08T12:36:06.760Z,7.68
2022-12-08T12:38:54.547Z,7.80
2022-12-08T12:41:25.700Z,7.17
2022-12-08T12:44:35.755Z,7.82
2022-12-08T12:47:08.622Z,7.20
2022-12-08T12:49:52.468Z,9.25
2022-12-08T12:52:40.482Z,7.05
2022-12-08T12:55:25.964Z,7.97
2022-12-08T12:57:55.410Z,7.20
2022-12-08T13:00:24.998Z,6.93
2022-12-08T13:02:57.448Z,6.20
2022-12-08T13:05:27.724Z,6.68
2022-12-08T13:07:57.436Z,6.63
2022-12-08T13:10:28.330Z,6.43
2022-12-08T13:13:05.628Z,6.07
2022-12-08T13:15:39.217Z,6.15
2022-12-08T13:18:17.926Z,6.35
2022-12-08T13:20:48.521Z,7.47
2022-12-08T13:23:31.207Z,7.07
2022-12-08T13:26:17.899Z,7.10
2022-12-08T13:29:06.073Z,6.20
2022-12-08T13:31:38.309Z,6.43
2022-12-08T13:34:08.210Z,7.40
2022-12-08T13:36:38.626Z,7.35
2022-12-08T13:39:07.369Z,7.88
2022-12-08T13:41:38.235Z,6.57
2022-12-08T13:45:03.552Z,6.80
2022-12-08T13:47:32.161Z,6.57
2022-12-08T13:58:29.031Z,7.03
2022-12-08T14:01:00.623Z,7.43
2022-12-08T14:03:29.168Z,7.97
2022-12-08T14:06:14.260Z,7.00
2022-12-08T14:09:00.396Z,6.00
2022-12-08T14:11:36.706Z,6.47
2022-12-08T14:14:08.205Z,6.97
2022-12-08T14:16:39.559Z,7.13
2022-12-08T14:19:17.239Z,8.85
2022-12-08T14:22:07.083Z,7.35
2022-12-08T14:24:39.036Z,6.10
2022-12-08T14:27:10.181Z,7.03
2022-12-08T14:29:43.695Z,7.18
2022-12-08T14:32:24.107Z,7.28
2022-12-08T14:34:58.482Z,6.82
2022-12-08T14:37:29.502Z,7.40
2022-12-08T14:40:02.944Z,7.13
2022-12-08T14:42:31.417Z,7.65
2022-12-08T14:45:02.305Z,7.70
2022-12-08T14:47:31.981Z,6.82
2022-12-08T14:50:00.422Z,6.93
2022-12-08T14:52:30.288Z,6.53
2022-12-08T14:54:58.836Z,7.60
2022-12-08T14:57:33.205Z,6.50
2022-12-08T15:00:08.835Z,7.47
2022-12-08T15:02:42.974Z,8.00
2022-12-08T15:05:13.312Z,7.17
2022-12-08T15:07:49.333Z,7.40
2022-12-08T15:10:23.814Z,8.18
2022-12-08T15:13:02.650Z,7.78
2022-12-08T15:15:32.750Z,7.75
2022-12-08T15:18:13.090Z,11.00
2022-12-08T15:20:43.048Z,10.27
2022-12-08T15:23:22.687Z,8.02
2022-12-08T15:25:51.839Z,7.63
2022-12-08T15:28:25.225Z,8.65
2022-12-08T15:30:57.205Z,7.70
2022-12-08T15:33:25.137Z,8.15
2022-12-08T15:35:53.590Z,8.90
2022-12-08T15:38:24.650Z,8.20
2022-12-08T15:40:53.191Z,8.68
2022-12-08T15:43:21.381Z,7.47
2022-12-08T15:45:58.522Z,7.82
2022-12-08T15:48:29.377Z,8.10
2022-12-08T15:50:57.920Z,6.90
2022-12-08T15:53:27.331Z,7.47
2022-12-08T15:56:26.224Z,7.33
2022-12-08T15:58:59.368Z,8.13
2022-12-08T16:01:28.049Z,7.22
2022-12-08T16:09:38.392Z,7.70
2022-12-08T16:12:25.392Z,7.97
2022-12-08T16:17:42.318Z,7.47
2022-12-08T16:20:14.234Z,8.40
2022-12-08T16:22:54.563Z,8.30
2022-12-08T16:25:46.060Z,7.47
2022-12-08T16:28:52.232Z,7.65
2022-12-08T16:31:10.257Z,8.30
2022-12-08T16:33:41.541Z,8.43
2022-12-08T16:36:10.629Z,8.53
2022-12-08T16:38:38.802Z,7.72
2022-12-08T16:41:30.057Z,8.32
2022-12-08T16:44:02.031Z,8.27
2022-12-08T16:46:32.526Z,8.15
2022-12-08T16:49:00.775Z,8.70
2022-12-08T16:51:28.797Z,9.05
2022-12-08T16:53:58.185Z,8.20
2022-12-08T16:56:32.603Z,8.70
2022-12-08T16:59:02.367Z,8.80
2022-12-08T17:01:30.671Z,8.53
2022-12-08T17:04:29.839Z,8.65
2022-12-08T17:06:46.765Z,11.20
2022-12-08T17:09:14.918Z,8.55
2022-12-08T17:11:44.291Z,10.10
2022-12-08T17:14:13.144Z,8.83
2022-12-08T17:16:41.642Z,8.68
2022-12-08T17:19:10.142Z,11.20
2022-12-08T17:21:38.028Z,10.88
2022-12-08T17:24:06.728Z,10.93
2022-12-08T17:26:35.366Z,9.80
2022-12-08T17:29:05.384Z,9.90
2022-12-08T17:31:35.255Z,12.57
2022-12-08T17:34:09.451Z,9.88
2022-12-08T17:36:37.690Z,8.95
2022-12-08T17:39:09.244Z,8.53
2022-12-08T17:41:39.018Z,9.30
2022-12-08T17:44:13.481Z,9.25
2022-12-08T17:46:44.295Z,10.07
2022-12-08T17:49:19.054Z,10.07
2022-12-08T17:51:48.506Z,9.77
2022-12-08T17:54:19.057Z,9.93
2022-12-08T17:56:47.647Z,10.65
2022-12-08T17:59:17.300Z,9.90
2022-12-08T18:01:45.517Z,9.55
2022-12-08T18:04:13.860Z,9.47
2022-12-08T18:06:42.114Z,8.93
2022-12-08T18:09:10.757Z,9.73
2022-12-08T18:11:38.927Z,9.27
2022-12-08T18:14:10.284Z,9.43
2022-12-08T18:16:41.436Z,9.90
2022-12-08T18:19:10.284Z,10.65
2022-12-08T18:21:40.206Z,14.30
2022-12-08T18:24:10.031Z,10.93
2022-12-08T18:26:38.544Z,10.88
2022-12-08T18:29:06.889Z,11.30
2022-12-08T18:31:34.922Z,10.52
2022-12-08T18:34:04.792Z,10.05
2022-12-08T18:36:32.907Z,10.68
2022-12-08T18:39:03.469Z,9.90
2022-12-08T18:41:35.321Z,10.27
2022-12-08T18:44:03.488Z,11.68
2022-12-08T18:46:32.399Z,10.32
2022-12-08T18:49:00.933Z,9.80
2022-12-08T18:51:32.266Z,10.25
2022-12-08T18:54:08.033Z,8.90
2022-12-08T18:56:37.636Z,9.52
2022-12-08T18:59:08.262Z,9.15
2022-12-08T19:01:41.776Z,8.90
2022-12-08T19:04:27.849Z,9.52
2022-12-08T19:06:58.601Z,10.00
2022-12-08T19:09:29.102Z,9.93
2022-12-08T19:11:58.821Z,9.93
2022-12-08T19:14:28.716Z,9.15
2022-12-08T19:16:57.733Z,9.13
2022-12-08T19:19:26.256Z,10.23
2022-12-08T19:21:54.621Z,10.25
2022-12-08T19:24:24.811Z,11.07
2022-12-08T19:26:54.169Z,10.85
2022-12-08T19:29:28.058Z,10.27
2022-12-08T19:31:57.661Z,9.87
2022-12-08T19:34:26.669Z,9.75
2022-12-08T19:36:55.585Z,9.77
2022-12-08T19:39:43.256Z,8.38
2022-12-08T19:42:33.749Z,9.13
2022-12-08T19:45:08.228Z,8.73
2022-12-08T19:47:36.539Z,9.55
2022-12-08T19:50:20.277Z,9.10
2022-12-08T19:52:48.177Z,8.73
2022-12-08T19:55:19.638Z,9.25
2022-12-08T19:57:51.665Z,8.50
2022-12-08T20:00:20.803Z,9.00
2022-12-08T20:02:50.183Z,8.68
2022-12-08T20:05:19.008Z,8.77
2022-12-08T20:07:50.345Z,8.75
2022-12-08T20:10:23.159Z,8.73
2022-12-08T20:12:51.349Z,8.10
2022-12-08T20:15:20.641Z,9.32
2022-12-08T20:17:49.300Z,8.10
2022-12-08T20:20:21.560Z,8.10
2022-12-08T20:22:49.906Z,8.10
2022-12-08T20:25:18.682Z,8.23
2022-12-08T20:27:48.273Z,7.30
2022-12-08T20:30:17.365Z,8.23
2022-12-08T20:32:45.762Z,8.60
2022-12-08T20:35:15.398Z,8.23
2022-12-08T20:37:43.411Z,8.57
2022-12-08T20:40:12.118Z,8.43
2022-12-08T20:42:40.139Z,8.90
2022-12-08T20:45:11.147Z,8.85
2022-12-08T20:47:39.853Z,8.43
2022-12-08T20:50:09.856Z,8.63
2022-12-08T20:52:38.677Z,8.98
2022-12-08T20:55:07.895Z,7.95
2022-12-08T20:57:36.396Z,8.82
2022-12-08T21:00:06.120Z,8.57
2022-12-08T21:02:36.538Z,8.18
2022-12-08T21:05:07.554Z,7.97
2022-12-08T21:07:36.267Z,8.52
2022-12-08T21:10:12.405Z,8.32
2022-12-08T21:12:40.855Z,9.03
2022-12-08T21:15:11.980Z,8.13
2022-12-08T21:17:42.053Z,8.05
2022-12-08T21:20:12.938Z,8.10
2022-12-08T21:22:42.393Z,9.20
2022-12-08T21:25:10.900Z,10.90
2022-12-08T21:27:39.797Z,9.32
2022-12-08T21:30:10.233Z,9.10
2022-12-08T21:32:39.644Z,9.20
2022-12-08T21:35:10.765Z,8.95
2022-12-08T21:37:39.340Z,8.83
2022-12-08T21:40:10.376Z,9.38
2022-12-08T21:42:45.074Z,8.43
2022-12-08T21:45:15.485Z,9.90
2022-12-08T21:47:48.246Z,9.60
2022-12-08T21:50:18.939Z,8.33
2022-12-08T21:52:48.622Z,8.80
2022-12-08T21:55:19.118Z,10.98
2022-12-08T21:57:49.889Z,11.82
2022-12-08T22:00:19.638Z,10.52
2022-12-08T22:02:48.781Z,9.67
2022-12-08T22:05:18.974Z,8.05
2022-12-08T22:07:47.123Z,7.82
2022-12-08T22:10:16.793Z,8.35
2022-12-08T22:12:45.030Z,8.32
2022-12-08T22:15:14.204Z,7.97
2022-12-08T22:17:44.627Z,8.20
2022-12-08T22:20:14.751Z,7.70
2022-12-08T22:22:45.681Z,7.82
2022-12-08T22:25:14.999Z,8.00
2022-12-08T22:27:47.179Z,7.97
2022-12-08T22:30:31.797Z,9.35
2022-12-08T22:33:02.601Z,11.13
2022-12-08T22:35:30.738Z,9.90
2022-12-08T22:38:00.183Z,12.77
2022-12-08T22:40:28.609Z,13.97
2022-12-08T22:42:56.706Z,12.10
2022-12-08T22:45:24.910Z,11.50
2022-12-08T22:47:52.861Z,9.63
2022-12-08T22:50:21.251Z,10.85
2022-12-08T22:52:49.403Z,8.77
2022-12-08T22:55:19.169Z,8.63
2022-12-08T22:57:47.284Z,8.40
2022-12-08T23:00:16.163Z,8.10
2022-12-08T23:02:44.138Z,8.27
2022-12-08T23:05:12.617Z,8.43
2022-12-08T23:07:41.258Z,8.07
2022-12-08T23:10:11.022Z,8.13
2022-12-08T23:12:40.566Z,8.90
2022-12-08T23:15:09.565Z,8.82
2022-12-08T23:17:37.905Z,8.27
2022-12-08T23:20:08.008Z,8.88
2022-12-08T23:22:36.173Z,8.60
2022-12-08T23:25:05.157Z,7.97
2022-12-08T23:27:33.496Z,8.43
2022-12-08T23:30:03.054Z,8.47
2022-12-08T23:32:31.369Z,9.68
2022-12-08T23:34:59.810Z,8.48
2022-12-08T23:37:28.901Z,8.50
2022-12-08T23:39:57.190Z,8.63
2022-12-08T23:42:25.249Z,8.50
2022-12-08T23:44:53.603Z,8.02
2022-12-08T23:47:23.053Z,8.18
2022-12-08T23:49:51.284Z,8.45
2022-12-08T23:52:19.507Z,8.68
2022-12-08T23:54:47.703Z,8.60
2022-12-08T23:57:15.842Z,8.27
2022-12-08T23:59:44.575Z,8.68
